sensor_id;sensor_type;location;lat;lon;timestamp;P1;durP1;ratioP1;P2;durP2;ratioP2
24383;SDS011;12504;52.870;8.798;2023-03-08T00:01:10;10.35;;;6.32;;
24383;SDS011;12504;52.870;8.798;2023-03-08T00:03:37;10.40;;;6.18;;
24383;SDS011;12504;52.870;8.798;2023-03-08T00:06:07;8.68;;;5.55;;
24383;SDS011;12504;52.870;8.798;2023-03-08T00:08:34;12.70;;;7.43;;
24383;SDS011;12504;52.870;8.798;2023-03-08T00:11:03;11.55;;;6.30;;
24383;SDS011;12504;52.870;8.798;2023-03-08T00:13:30;9.93;;;5.32;;
24383;SDS011;12504;52.870;8.798;2023-03-08T00:16:00;14.23;;;6.28;;
24383;SDS011;12504;52.870;8.798;2023-03-08T00:18:27;12.13;;;4.88;;
24383;SDS011;12504;52.870;8.798;2023-03-08T00:23:25;10.18;;;5.05;;
24383;SDS011;12504;52.870;8.798;2023-03-08T00:25:52;11.90;;;6.30;;
24383;SDS011;12504;52.870;8.798;2023-03-08T00:28:18;12.65;;;5.93;;
24383;SDS011;12504;52.870;8.798;2023-03-08T00:30:44;13.95;;;5.43;;
24383;SDS011;12504;52.870;8.798;2023-03-08T00:33:10;9.13;;;5.40;;
24383;SDS011;12504;52.870;8.798;2023-03-08T00:35:35;10.73;;;6.05;;
24383;SDS011;12504;52.870;8.798;2023-03-08T00:38:01;11.05;;;6.15;;
24383;SDS011;12504;52.870;8.798;2023-03-08T00:40:27;8.98;;;4.78;;
24383;SDS011;12504;52.870;8.798;2023-03-08T00:42:52;9.05;;;5.60;;
24383;SDS011;12504;52.870;8.798;2023-03-08T00:45:18;11.73;;;5.80;;
24383;SDS011;12504;52.870;8.798;2023-03-08T00:47:44;10.73;;;6.25;;
24383;SDS011;12504;52.870;8.798;2023-03-08T00:50:09;10.32;;;5.47;;
24383;SDS011;12504;52.870;8.798;2023-03-08T00:52:35;14.90;;;6.43;;
24383;SDS011;12504;52.870;8.798;2023-03-08T00:55:01;9.82;;;5.97;;
24383;SDS011;12504;52.870;8.798;2023-03-08T00:57:26;10.00;;;5.75;;
24383;SDS011;12504;52.870;8.798;2023-03-08T00:59:52;9.45;;;5.90;;
24383;SDS011;12504;52.870;8.798;2023-03-08T01:02:19;13.80;;;5.88;;
24383;SDS011;12504;52.870;8.798;2023-03-08T01:04:45;15.10;;;7.22;;
24383;SDS011;12504;52.870;8.798;2023-03-08T01:07:11;11.48;;;6.22;;
24383;SDS011;12504;52.870;8.798;2023-03-08T01:09:37;13.18;;;6.38;;
24383;SDS011;12504;52.870;8.798;2023-03-08T01:12:04;13.38;;;6.28;;
24383;SDS011;12504;52.870;8.798;2023-03-08T01:14:30;10.95;;;6.55;;
24383;SDS011;12504;52.870;8.798;2023-03-08T01:16:55;12.75;;;7.07;;
24383;SDS011;12504;52.870;8.798;2023-03-08T01:19:21;16.88;;;7.80;;
24383;SDS011;12504;52.870;8.798;2023-03-08T01:21:47;10.15;;;6.57;;
24383;SDS011;12504;52.870;8.798;2023-03-08T01:24:12;14.68;;;7.88;;
24383;SDS011;12504;52.870;8.798;2023-03-08T01:26:38;15.10;;;8.20;;
24383;SDS011;12504;52.870;8.798;2023-03-08T01:29:03;17.17;;;7.53;;
24383;SDS011;12504;52.870;8.798;2023-03-08T01:31:33;15.70;;;7.30;;
24383;SDS011;12504;52.870;8.798;2023-03-08T01:33:59;18.02;;;9.43;;
24383;SDS011;12504;52.870;8.798;2023-03-08T01:36:25;16.77;;;9.32;;
24383;SDS011;12504;52.870;8.798;2023-03-08T01:38:52;20.38;;;8.27;;
24383;SDS011;12504;52.870;8.798;2023-03-08T01:41:23;14.55;;;8.13;;
24383;SDS011;12504;52.870;8.798;2023-03-08T01:43:52;20.77;;;10.00;;
24383;SDS011;12504;52.870;8.798;2023-03-08T01:46:25;19.95;;;10.18;;
24383;SDS011;12504;52.870;8.798;2023-03-08T01:51:57;17.80;;;9.80;;
24383;SDS011;12504;52.870;8.798;2023-03-08T01:54:36;16.50;;;8.63;;
24383;SDS011;12504;52.870;8.798;2023-03-08T01:57:08;22.90;;;10.35;;
24383;SDS011;12504;52.870;8.798;2023-03-08T01:59:39;25.35;;;10.32;;
24383;SDS011;12504;52.870;8.798;2023-03-08T02:02:06;19.92;;;10.23;;
24383;SDS011;12504;52.870;8.798;2023-03-08T02:04:33;26.42;;;11.77;;
24383;SDS011;12504;52.870;8.798;2023-03-08T02:06:59;21.05;;;11.02;;
24383;SDS011;12504;52.870;8.798;2023-03-08T02:09:25;24.27;;;10.77;;
24383;SDS011;12504;52.870;8.798;2023-03-08T02:11:51;25.52;;;11.85;;
24383;SDS011;12504;52.870;8.798;2023-03-08T02:14:23;23.85;;;11.23;;
24383;SDS011;12504;52.870;8.798;2023-03-08T02:16:51;21.20;;;10.07;;
24383;SDS011;12504;52.870;8.798;2023-03-08T02:19:19;19.50;;;10.30;;
24383;SDS011;12504;52.870;8.798;2023-03-08T02:22:06;18.77;;;10.23;;
24383;SDS011;12504;52.870;8.798;2023-03-08T02:24:33;24.58;;;10.35;;
24383;SDS011;12504;52.870;8.798;2023-03-08T02:27:00;21.05;;;10.38;;
24383;SDS011;12504;52.870;8.798;2023-03-08T02:29:32;23.77;;;9.63;;
24383;SDS011;12504;52.870;8.798;2023-03-08T02:31:58;21.80;;;11.00;;
24383;SDS011;12504;52.870;8.798;2023-03-08T02:34:23;25.88;;;10.98;;
24383;SDS011;12504;52.870;8.798;2023-03-08T02:36:49;23.17;;;9.85;;
24383;SDS011;12504;52.870;8.798;2023-03-08T02:39:16;23.27;;;10.85;;
24383;SDS011;12504;52.870;8.798;2023-03-08T02:41:42;24.85;;;11.60;;
24383;SDS011;12504;52.870;8.798;2023-03-08T02:44:07;26.83;;;11.80;;
24383;SDS011;12504;52.870;8.798;2023-03-08T02:46:33;22.73;;;11.05;;
24383;SDS011;12504;52.870;8.798;2023-03-08T02:49:00;24.88;;;12.70;;
24383;SDS011;12504;52.870;8.798;2023-03-08T02:51:25;27.90;;;12.75;;
24383;SDS011;12504;52.870;8.798;2023-03-08T02:53:51;20.25;;;10.10;;
24383;SDS011;12504;52.870;8.798;2023-03-08T02:56:17;25.50;;;9.90;;
24383;SDS011;12504;52.870;8.798;2023-03-08T02:58:43;19.45;;;9.55;;
24383;SDS011;12504;52.870;8.798;2023-03-08T03:01:12;20.88;;;10.00;;
24383;SDS011;12504;52.870;8.798;2023-03-08T03:03:39;20.65;;;8.93;;
24383;SDS011;12504;52.870;8.798;2023-03-08T03:06:16;24.38;;;10.35;;
24383;SDS011;12504;52.870;8.798;2023-03-08T03:08:46;22.83;;;11.35;;
24383;SDS011;12504;52.870;8.798;2023-03-08T03:11:16;21.00;;;10.55;;
24383;SDS011;12504;52.870;8.798;2023-03-08T03:13:46;18.67;;;9.18;;
24383;SDS011;12504;52.870;8.798;2023-03-08T03:16:18;15.82;;;8.15;;
24383;SDS011;12504;52.870;8.798;2023-03-08T03:18:45;19.35;;;9.55;;
24383;SDS011;12504;52.870;8.798;2023-03-08T03:21:11;20.10;;;9.00;;
24383;SDS011;12504;52.870;8.798;2023-03-08T03:23:38;20.23;;;10.32;;
24383;SDS011;12504;52.870;8.798;2023-03-08T03:26:07;19.67;;;8.77;;
24383;SDS011;12504;52.870;8.798;2023-03-08T03:28:35;19.50;;;9.13;;
24383;SDS011;12504;52.870;8.798;2023-03-08T03:31:06;24.27;;;9.30;;
24383;SDS011;12504;52.870;8.798;2023-03-08T03:33:33;20.30;;;9.50;;
24383;SDS011;12504;52.870;8.798;2023-03-08T03:36:00;16.27;;;8.93;;
24383;SDS011;12504;52.870;8.798;2023-03-08T03:38:26;22.23;;;9.60;;
24383;SDS011;12504;52.870;8.798;2023-03-08T03:41:02;24.17;;;10.63;;
24383;SDS011;12504;52.870;8.798;2023-03-08T03:43:30;18.23;;;9.20;;
24383;SDS011;12504;52.870;8.798;2023-03-08T03:45:58;14.23;;;8.73;;
24383;SDS011;12504;52.870;8.798;2023-03-08T03:48:26;22.65;;;9.23;;
24383;SDS011;12504;52.870;8.798;2023-03-08T03:51:03;18.95;;;9.23;;
24383;SDS011;12504;52.870;8.798;2023-03-08T03:53:31;18.23;;;9.85;;
24383;SDS011;12504;52.870;8.798;2023-03-08T03:56:02;20.17;;;8.95;;
24383;SDS011;12504;52.870;8.798;2023-03-08T03:58:29;20.17;;;9.23;;
24383;SDS011;12504;52.870;8.798;2023-03-08T04:00:55;20.77;;;8.80;;
24383;SDS011;12504;52.870;8.798;2023-03-08T04:03:28;20.05;;;8.93;;
24383;SDS011;12504;52.870;8.798;2023-03-08T04:05:54;17.15;;;8.15;;
24383;SDS011;12504;52.870;8.798;2023-03-08T04:08:29;16.55;;;8.02;;
24383;SDS011;12504;52.870;8.798;2023-03-08T04:10:58;19.33;;;9.02;;
24383;SDS011;12504;52.870;8.798;2023-03-08T04:13:25;20.23;;;8.65;;
24383;SDS011;12504;52.870;8.798;2023-03-08T04:15:51;24.30;;;8.80;;
24383;SDS011;12504;52.870;8.798;2023-03-08T04:18:17;21.83;;;9.35;;
24383;SDS011;12504;52.870;8.798;2023-03-08T04:20:44;17.02;;;7.50;;
24383;SDS011;12504;52.870;8.798;2023-03-08T04:23:11;20.38;;;8.93;;
24383;SDS011;12504;52.870;8.798;2023-03-08T04:25:40;13.65;;;8.15;;
24383;SDS011;12504;52.870;8.798;2023-03-08T04:28:08;20.73;;;8.13;;
24383;SDS011;12504;52.870;8.798;2023-03-08T04:30:34;24.13;;;9.32;;
24383;SDS011;12504;52.870;8.798;2023-03-08T04:33:01;19.73;;;8.00;;
24383;SDS011;12504;52.870;8.798;2023-03-08T04:35:35;14.18;;;7.18;;
24383;SDS011;12504;52.870;8.798;2023-03-08T04:38:02;22.77;;;9.30;;
24383;SDS011;12504;52.870;8.798;2023-03-08T04:40:28;21.10;;;8.68;;
24383;SDS011;12504;52.870;8.798;2023-03-08T04:42:57;17.88;;;10.05;;
24383;SDS011;12504;52.870;8.798;2023-03-08T04:45:29;21.77;;;8.45;;
24383;SDS011;12504;52.870;8.798;2023-03-08T04:47:58;21.97;;;10.40;;
24383;SDS011;12504;52.870;8.798;2023-03-08T04:50:24;15.43;;;8.30;;
24383;SDS011;12504;52.870;8.798;2023-03-08T04:52:53;20.30;;;9.55;;
24383;SDS011;12504;52.870;8.798;2023-03-08T04:55:19;20.90;;;9.15;;
24383;SDS011;12504;52.870;8.798;2023-03-08T04:57:45;23.50;;;9.40;;
24383;SDS011;12504;52.870;8.798;2023-03-08T05:00:11;18.08;;;9.27;;
24383;SDS011;12504;52.870;8.798;2023-03-08T05:02:39;23.17;;;9.65;;
24383;SDS011;12504;52.870;8.798;2023-03-08T05:05:10;22.63;;;10.05;;
24383;SDS011;12504;52.870;8.798;2023-03-08T05:07:36;20.83;;;10.05;;
24383;SDS011;12504;52.870;8.798;2023-03-08T05:10:02;17.08;;;8.52;;
24383;SDS011;12504;52.870;8.798;2023-03-08T05:12:28;18.63;;;9.25;;
24383;SDS011;12504;52.870;8.798;2023-03-08T05:14:57;21.95;;;9.32;;
24383;SDS011;12504;52.870;8.798;2023-03-08T05:17:24;17.38;;;8.07;;
24383;SDS011;12504;52.870;8.798;2023-03-08T05:19:50;19.73;;;9.70;;
24383;SDS011;12504;52.870;8.798;2023-03-08T05:22:20;20.02;;;10.52;;
24383;SDS011;12504;52.870;8.798;2023-03-08T05:24:49;23.23;;;10.23;;
24383;SDS011;12504;52.870;8.798;2023-03-08T05:27:16;22.90;;;9.38;;
24383;SDS011;12504;52.870;8.798;2023-03-08T05:29:43;22.02;;;10.25;;
24383;SDS011;12504;52.870;8.798;2023-03-08T05:32:09;19.63;;;9.02;;
24383;SDS011;12504;52.870;8.798;2023-03-08T05:34:36;16.33;;;8.55;;
24383;SDS011;12504;52.870;8.798;2023-03-08T05:37:04;18.25;;;9.23;;
24383;SDS011;12504;52.870;8.798;2023-03-08T05:39:33;20.17;;;8.52;;
24383;SDS011;12504;52.870;8.798;2023-03-08T05:42:06;24.73;;;9.85;;
24383;SDS011;12504;52.870;8.798;2023-03-08T05:44:37;19.48;;;9.98;;
24383;SDS011;12504;52.870;8.798;2023-03-08T05:47:04;24.13;;;9.65;;
24383;SDS011;12504;52.870;8.798;2023-03-08T05:49:30;23.60;;;10.48;;
24383;SDS011;12504;52.870;8.798;2023-03-08T05:51:56;23.58;;;12.10;;
24383;SDS011;12504;52.870;8.798;2023-03-08T05:54:23;40.40;;;19.33;;
24383;SDS011;12504;52.870;8.798;2023-03-08T05:56:52;24.10;;;12.48;;
24383;SDS011;12504;52.870;8.798;2023-03-08T05:59:24;27.15;;;12.25;;
24383;SDS011;12504;52.870;8.798;2023-03-08T06:01:52;22.08;;;11.32;;
24383;SDS011;12504;52.870;8.798;2023-03-08T06:04:29;25.77;;;11.98;;
24383;SDS011;12504;52.870;8.798;2023-03-08T06:06:57;24.63;;;11.25;;
24383;SDS011;12504;52.870;8.798;2023-03-08T06:09:27;27.40;;;10.60;;
24383;SDS011;12504;52.870;8.798;2023-03-08T06:11:53;25.90;;;11.88;;
24383;SDS011;12504;52.870;8.798;2023-03-08T06:14:21;22.85;;;11.77;;
24383;SDS011;12504;52.870;8.798;2023-03-08T06:16:47;22.27;;;10.45;;
24383;SDS011;12504;52.870;8.798;2023-03-08T06:19:15;21.20;;;10.70;;
24383;SDS011;12504;52.870;8.798;2023-03-08T06:21:41;23.40;;;10.93;;
24383;SDS011;12504;52.870;8.798;2023-03-08T06:24:07;25.48;;;11.85;;
24383;SDS011;12504;52.870;8.798;2023-03-08T06:26:33;24.83;;;11.35;;
24383;SDS011;12504;52.870;8.798;2023-03-08T06:28:59;23.77;;;10.93;;
24383;SDS011;12504;52.870;8.798;2023-03-08T06:31:28;21.90;;;10.45;;
24383;SDS011;12504;52.870;8.798;2023-03-08T06:33:54;25.50;;;10.75;;
24383;SDS011;12504;52.870;8.798;2023-03-08T06:36:23;34.30;;;12.52;;
24383;SDS011;12504;52.870;8.798;2023-03-08T06:38:49;25.40;;;11.38;;
24383;SDS011;12504;52.870;8.798;2023-03-08T06:41:16;25.02;;;10.85;;
24383;SDS011;12504;52.870;8.798;2023-03-08T06:43:45;31.42;;;12.77;;
24383;SDS011;12504;52.870;8.798;2023-03-08T06:46:12;27.08;;;12.52;;
24383;SDS011;12504;52.870;8.798;2023-03-08T06:48:41;22.30;;;9.98;;
24383;SDS011;12504;52.870;8.798;2023-03-08T06:51:07;24.67;;;11.32;;
24383;SDS011;12504;52.870;8.798;2023-03-08T06:53:34;36.90;;;12.55;;
24383;SDS011;12504;52.870;8.798;2023-03-08T06:56:04;21.48;;;10.65;;
24383;SDS011;12504;52.870;8.798;2023-03-08T06:58:34;24.73;;;11.10;;
24383;SDS011;12504;52.870;8.798;2023-03-08T07:01:00;30.80;;;9.82;;
24383;SDS011;12504;52.870;8.798;2023-03-08T07:03:28;24.27;;;11.18;;
24383;SDS011;12504;52.870;8.798;2023-03-08T07:06:01;28.00;;;11.65;;
24383;SDS011;12504;52.870;8.798;2023-03-08T07:08:29;28.35;;;11.90;;
24383;SDS011;12504;52.870;8.798;2023-03-08T07:10:55;24.30;;;13.13;;
24383;SDS011;12504;52.870;8.798;2023-03-08T07:13:22;31.83;;;13.73;;
24383;SDS011;12504;52.870;8.798;2023-03-08T07:15:49;22.65;;;10.55;;
24383;SDS011;12504;52.870;8.798;2023-03-08T07:18:15;29.20;;;12.80;;
24383;SDS011;12504;52.870;8.798;2023-03-08T07:20:41;27.60;;;11.88;;
24383;SDS011;12504;52.870;8.798;2023-03-08T07:23:06;28.90;;;10.85;;
24383;SDS011;12504;52.870;8.798;2023-03-08T07:25:32;27.70;;;11.82;;
24383;SDS011;12504;52.870;8.798;2023-03-08T07:27:58;25.63;;;13.18;;
24383;SDS011;12504;52.870;8.798;2023-03-08T07:30:24;30.23;;;13.38;;
24383;SDS011;12504;52.870;8.798;2023-03-08T07:32:51;23.52;;;11.95;;
24383;SDS011;12504;52.870;8.798;2023-03-08T07:35:17;26.52;;;13.00;;
24383;SDS011;12504;52.870;8.798;2023-03-08T07:37:44;25.50;;;12.43;;
24383;SDS011;12504;52.870;8.798;2023-03-08T07:40:11;28.35;;;13.50;;
24383;SDS011;12504;52.870;8.798;2023-03-08T07:42:38;35.17;;;13.27;;
24383;SDS011;12504;52.870;8.798;2023-03-08T07:45:16;39.65;;;15.02;;
24383;SDS011;12504;52.870;8.798;2023-03-08T07:47:42;28.52;;;11.68;;
24383;SDS011;12504;52.870;8.798;2023-03-08T07:50:08;27.60;;;13.68;;
24383;SDS011;12504;52.870;8.798;2023-03-08T07:52:34;28.48;;;13.38;;
24383;SDS011;12504;52.870;8.798;2023-03-08T07:55:00;32.90;;;15.02;;
24383;SDS011;12504;52.870;8.798;2023-03-08T07:57:26;27.73;;;12.07;;
24383;SDS011;12504;52.870;8.798;2023-03-08T07:59:52;25.17;;;12.63;;
24383;SDS011;12504;52.870;8.798;2023-03-08T08:02:18;28.95;;;13.00;;
24383;SDS011;12504;52.870;8.798;2023-03-08T08:04:44;26.27;;;12.20;;
24383;SDS011;12504;52.870;8.798;2023-03-08T08:07:11;28.30;;;13.35;;
24383;SDS011;12504;52.870;8.798;2023-03-08T08:09:38;25.30;;;13.23;;
24383;SDS011;12504;52.870;8.798;2023-03-08T08:12:04;29.33;;;14.02;;
24383;SDS011;12504;52.870;8.798;2023-03-08T08:14:30;28.45;;;12.68;;
24383;SDS011;12504;52.870;8.798;2023-03-08T08:16:56;27.55;;;12.57;;
24383;SDS011;12504;52.870;8.798;2023-03-08T08:19:22;28.88;;;11.88;;
24383;SDS011;12504;52.870;8.798;2023-03-08T08:21:47;41.05;;;11.90;;
24383;SDS011;12504;52.870;8.798;2023-03-08T08:24:13;28.55;;;12.43;;
24383;SDS011;12504;52.870;8.798;2023-03-08T08:26:39;25.38;;;12.02;;
24383;SDS011;12504;52.870;8.798;2023-03-08T08:29:05;27.15;;;11.40;;
24383;SDS011;12504;52.870;8.798;2023-03-08T08:31:31;28.33;;;11.57;;
24383;SDS011;12504;52.870;8.798;2023-03-08T08:33:57;23.80;;;10.60;;
24383;SDS011;12504;52.870;8.798;2023-03-08T08:36:23;29.58;;;11.07;;
24383;SDS011;12504;52.870;8.798;2023-03-08T08:38:49;33.22;;;11.65;;
24383;SDS011;12504;52.870;8.798;2023-03-08T08:41:16;29.75;;;12.75;;
24383;SDS011;12504;52.870;8.798;2023-03-08T08:43:43;22.58;;;11.60;;
24383;SDS011;12504;52.870;8.798;2023-03-08T08:46:10;22.48;;;10.75;;
24383;SDS011;12504;52.870;8.798;2023-03-08T08:48:36;21.23;;;9.30;;
24383;SDS011;12504;52.870;8.798;2023-03-08T08:51:06;26.67;;;10.82;;
24383;SDS011;12504;52.870;8.798;2023-03-08T08:53:33;21.88;;;11.20;;
24383;SDS011;12504;52.870;8.798;2023-03-08T08:56:08;22.33;;;10.70;;
24383;SDS011;12504;52.870;8.798;2023-03-08T08:58:41;24.38;;;9.60;;
24383;SDS011;12504;52.870;8.798;2023-03-08T09:01:14;19.48;;;9.32;;
24383;SDS011;12504;52.870;8.798;2023-03-08T09:03:42;20.88;;;8.65;;
24383;SDS011;12504;52.870;8.798;2023-03-08T09:06:07;18.27;;;9.10;;
24383;SDS011;12504;52.870;8.798;2023-03-08T09:08:33;24.70;;;11.23;;
24383;SDS011;12504;52.870;8.798;2023-03-08T09:11:02;22.33;;;10.70;;
24383;SDS011;12504;52.870;8.798;2023-03-08T09:13:30;26.05;;;13.30;;
24383;SDS011;12504;52.870;8.798;2023-03-08T09:15:56;19.25;;;9.55;;
24383;SDS011;12504;52.870;8.798;2023-03-08T09:18:21;21.38;;;9.60;;
24383;SDS011;12504;52.870;8.798;2023-03-08T09:20:47;23.23;;;11.10;;
24383;SDS011;12504;52.870;8.798;2023-03-08T09:23:13;20.30;;;10.20;;
24383;SDS011;12504;52.870;8.798;2023-03-08T09:25:38;22.85;;;10.23;;
24383;SDS011;12504;52.870;8.798;2023-03-08T09:28:04;17.25;;;9.75;;
24383;SDS011;12504;52.870;8.798;2023-03-08T09:30:30;20.20;;;9.48;;
24383;SDS011;12504;52.870;8.798;2023-03-08T09:32:57;23.98;;;9.75;;
24383;SDS011;12504;52.870;8.798;2023-03-08T09:35:23;20.85;;;8.90;;
24383;SDS011;12504;52.870;8.798;2023-03-08T09:37:49;18.67;;;9.60;;
24383;SDS011;12504;52.870;8.798;2023-03-08T09:40:19;18.55;;;9.95;;
24383;SDS011;12504;52.870;8.798;2023-03-08T09:42:48;26.15;;;11.57;;
24383;SDS011;12504;52.870;8.798;2023-03-08T09:45:18;21.08;;;10.45;;
24383;SDS011;12504;52.870;8.798;2023-03-08T09:50:43;23.20;;;11.05;;
24383;SDS011;12504;52.870;8.798;2023-03-08T09:56:20;16.40;;;8.35;;
24383;SDS011;12504;52.870;8.798;2023-03-08T09:58:57;21.08;;;10.38;;
24383;SDS011;12504;52.870;8.798;2023-03-08T10:04:13;18.40;;;9.50;;
24383;SDS011;12504;52.870;8.798;2023-03-08T10:06:58;20.23;;;8.27;;
24383;SDS011;12504;52.870;8.798;2023-03-08T10:14:48;21.17;;;9.38;;
24383;SDS011;12504;52.870;8.798;2023-03-08T10:17:23;20.73;;;9.38;;
24383;SDS011;12504;52.870;8.798;2023-03-08T10:22:27;17.05;;;8.57;;
24383;SDS011;12504;52.870;8.798;2023-03-08T10:25:00;18.77;;;10.30;;
24383;SDS011;12504;52.870;8.798;2023-03-08T10:27:32;23.20;;;10.57;;
24383;SDS011;12504;52.870;8.798;2023-03-08T10:30:00;18.15;;;8.52;;
24383;SDS011;12504;52.870;8.798;2023-03-08T10:32:40;22.77;;;9.75;;
24383;SDS011;12504;52.870;8.798;2023-03-08T10:35:10;16.40;;;8.88;;
24383;SDS011;12504;52.870;8.798;2023-03-08T10:37:36;15.95;;;8.20;;
24383;SDS011;12504;52.870;8.798;2023-03-08T10:40:06;19.08;;;8.50;;
24383;SDS011;12504;52.870;8.798;2023-03-08T10:42:42;19.75;;;8.20;;
24383;SDS011;12504;52.870;8.798;2023-03-08T10:45:14;19.05;;;9.48;;
24383;SDS011;12504;52.870;8.798;2023-03-08T10:47:53;19.85;;;8.93;;
24383;SDS011;12504;52.870;8.798;2023-03-08T10:50:33;21.98;;;10.25;;
24383;SDS011;12504;52.870;8.798;2023-03-08T10:53:16;22.92;;;10.18;;
24383;SDS011;12504;52.870;8.798;2023-03-08T10:55:45;23.35;;;11.07;;
24383;SDS011;12504;52.870;8.798;2023-03-08T10:58:26;21.10;;;10.23;;
24383;SDS011;12504;52.870;8.798;2023-03-08T11:01:01;20.70;;;10.82;;
24383;SDS011;12504;52.870;8.798;2023-03-08T11:03:56;19.42;;;10.15;;
24383;SDS011;12504;52.870;8.798;2023-03-08T11:06:24;18.15;;;9.95;;
24383;SDS011;12504;52.870;8.798;2023-03-08T11:08:52;22.25;;;9.68;;
24383;SDS011;12504;52.870;8.798;2023-03-08T11:11:19;18.88;;;9.02;;
24383;SDS011;12504;52.870;8.798;2023-03-08T11:13:46;26.73;;;11.40;;
24383;SDS011;12504;52.870;8.798;2023-03-08T11:24:27;16.63;;;8.73;;
24383;SDS011;12504;52.870;8.798;2023-03-08T11:29:58;16.08;;;8.57;;
24383;SDS011;12504;52.870;8.798;2023-03-08T11:32:45;16.00;;;8.20;;
24383;SDS011;12504;52.870;8.798;2023-03-08T11:35:36;18.00;;;8.95;;
24383;SDS011;12504;52.870;8.798;2023-03-08T11:38:24;20.67;;;9.98;;
24383;SDS011;12504;52.870;8.798;2023-03-08T11:46:27;20.67;;;9.57;;
24383;SDS011;12504;52.870;8.798;2023-03-08T11:51:56;47.88;;;19.08;;
24383;SDS011;12504;52.870;8.798;2023-03-08T11:55:00;24.52;;;11.50;;
24383;SDS011;12504;52.870;8.798;2023-03-08T11:58:03;20.27;;;10.00;;
24383;SDS011;12504;52.870;8.798;2023-03-08T12:00:48;26.15;;;12.98;;
24383;SDS011;12504;52.870;8.798;2023-03-08T12:03:19;33.35;;;15.43;;
24383;SDS011;12504;52.870;8.798;2023-03-08T12:05:49;36.30;;;17.83;;
24383;SDS011;12504;52.870;8.798;2023-03-08T12:09:06;27.23;;;12.95;;
24383;SDS011;12504;52.870;8.798;2023-03-08T12:11:10;21.08;;;10.57;;
24383;SDS011;12504;52.870;8.798;2023-03-08T12:13:45;23.17;;;12.13;;
24383;SDS011;12504;52.870;8.798;2023-03-08T12:22:11;16.67;;;7.00;;
24383;SDS011;12504;52.870;8.798;2023-03-08T12:30:27;12.00;;;6.20;;
24383;SDS011;12504;52.870;8.798;2023-03-08T12:32:58;12.40;;;6.45;;
24383;SDS011;12504;52.870;8.798;2023-03-08T12:35:31;12.50;;;6.35;;
24383;SDS011;12504;52.870;8.798;2023-03-08T12:38:03;10.43;;;5.72;;
24383;SDS011;12504;52.870;8.798;2023-03-08T12:40:45;11.27;;;5.45;;
24383;SDS011;12504;52.870;8.798;2023-03-08T12:43:26;11.63;;;5.18;;
24383;SDS011;12504;52.870;8.798;2023-03-08T12:48:32;8.80;;;4.30;;
24383;SDS011;12504;52.870;8.798;2023-03-08T13:01:39;9.88;;;5.00;;
24383;SDS011;12504;52.870;8.798;2023-03-08T13:14:44;8.65;;;4.25;;
24383;SDS011;12504;52.870;8.798;2023-03-08T13:17:33;11.95;;;5.15;;
24383;SDS011;12504;52.870;8.798;2023-03-08T13:20:10;11.13;;;4.82;;
24383;SDS011;12504;52.870;8.798;2023-03-08T13:23:01;10.40;;;5.50;;
24383;SDS011;12504;52.870;8.798;2023-03-08T13:28:07;10.63;;;4.80;;
24383;SDS011;12504;52.870;8.798;2023-03-08T13:30:35;9.73;;;5.18;;
24383;SDS011;12504;52.870;8.798;2023-03-08T13:33:06;12.07;;;4.93;;
24383;SDS011;12504;52.870;8.798;2023-03-08T13:35:36;13.45;;;5.00;;
24383;SDS011;12504;52.870;8.798;2023-03-08T13:38:01;9.10;;;4.95;;
24383;SDS011;12504;52.870;8.798;2023-03-08T13:40:27;9.32;;;5.65;;
24383;SDS011;12504;52.870;8.798;2023-03-08T13:42:58;11.63;;;5.43;;
24383;SDS011;12504;52.870;8.798;2023-03-08T13:45:34;10.20;;;5.07;;
24383;SDS011;12504;52.870;8.798;2023-03-08T13:48:02;13.50;;;6.35;;
24383;SDS011;12504;52.870;8.798;2023-03-08T13:50:34;13.02;;;5.47;;
24383;SDS011;12504;52.870;8.798;2023-03-08T13:53:02;9.93;;;5.70;;
24383;SDS011;12504;52.870;8.798;2023-03-08T13:55:34;11.35;;;5.25;;
24383;SDS011;12504;52.870;8.798;2023-03-08T14:00:30;9.13;;;4.72;;
24383;SDS011;12504;52.870;8.798;2023-03-08T14:03:00;11.48;;;5.55;;
24383;SDS011;12504;52.870;8.798;2023-03-08T14:05:31;7.80;;;4.65;;
24383;SDS011;12504;52.870;8.798;2023-03-08T14:08:05;10.70;;;5.07;;
24383;SDS011;12504;52.870;8.798;2023-03-08T14:10:43;11.57;;;5.40;;
24383;SDS011;12504;52.870;8.798;2023-03-08T14:13:16;9.15;;;5.25;;
24383;SDS011;12504;52.870;8.798;2023-03-08T14:15:52;8.95;;;4.03;;
24383;SDS011;12504;52.870;8.798;2023-03-08T14:18:22;9.63;;;3.67;;
24383;SDS011;12504;52.870;8.798;2023-03-08T14:20:59;10.15;;;5.28;;
24383;SDS011;12504;52.870;8.798;2023-03-08T14:23:25;6.53;;;3.05;;
24383;SDS011;12504;52.870;8.798;2023-03-08T14:25:55;6.68;;;3.88;;
24383;SDS011;12504;52.870;8.798;2023-03-08T14:28:32;9.23;;;5.32;;
24383;SDS011;12504;52.870;8.798;2023-03-08T14:31:02;8.20;;;3.75;;
24383;SDS011;12504;52.870;8.798;2023-03-08T14:33:28;5.57;;;3.88;;
24383;SDS011;12504;52.870;8.798;2023-03-08T14:35:54;7.22;;;3.83;;
24383;SDS011;12504;52.870;8.798;2023-03-08T14:38:27;6.85;;;3.42;;
24383;SDS011;12504;52.870;8.798;2023-03-08T14:40:55;10.13;;;4.32;;
24383;SDS011;12504;52.870;8.798;2023-03-08T14:43:39;5.32;;;2.83;;
24383;SDS011;12504;52.870;8.798;2023-03-08T14:46:17;6.15;;;3.03;;
24383;SDS011;12504;52.870;8.798;2023-03-08T14:48:44;5.28;;;3.25;;
24383;SDS011;12504;52.870;8.798;2023-03-08T14:54:00;5.38;;;3.53;;
24383;SDS011;12504;52.870;8.798;2023-03-08T14:56:30;4.95;;;2.60;;
24383;SDS011;12504;52.870;8.798;2023-03-08T14:58:58;4.90;;;2.72;;
24383;SDS011;12504;52.870;8.798;2023-03-08T15:01:29;9.13;;;3.10;;
24383;SDS011;12504;52.870;8.798;2023-03-08T15:03:57;4.85;;;2.53;;
24383;SDS011;12504;52.870;8.798;2023-03-08T15:06:24;5.43;;;3.20;;
24383;SDS011;12504;52.870;8.798;2023-03-08T15:08:55;5.82;;;3.05;;
24383;SDS011;12504;52.870;8.798;2023-03-08T15:11:22;8.27;;;3.85;;
24383;SDS011;12504;52.870;8.798;2023-03-08T15:13:48;7.20;;;3.10;;
24383;SDS011;12504;52.870;8.798;2023-03-08T15:16:14;7.40;;;4.32;;
24383;SDS011;12504;52.870;8.798;2023-03-08T15:18:39;8.15;;;3.63;;
24383;SDS011;12504;52.870;8.798;2023-03-08T15:21:05;5.05;;;3.53;;
24383;SDS011;12504;52.870;8.798;2023-03-08T15:23:35;6.43;;;3.78;;
24383;SDS011;12504;52.870;8.798;2023-03-08T15:26:05;10.25;;;4.05;;
24383;SDS011;12504;52.870;8.798;2023-03-08T15:28:31;9.65;;;4.18;;
24383;SDS011;12504;52.870;8.798;2023-03-08T15:30:57;10.32;;;4.35;;
24383;SDS011;12504;52.870;8.798;2023-03-08T15:33:22;8.10;;;4.28;;
24383;SDS011;12504;52.870;8.798;2023-03-08T15:35:48;8.88;;;4.00;;
24383;SDS011;12504;52.870;8.798;2023-03-08T15:38:15;10.10;;;4.70;;
24383;SDS011;12504;52.870;8.798;2023-03-08T15:40:42;9.85;;;4.03;;
24383;SDS011;12504;52.870;8.798;2023-03-08T15:43:08;10.40;;;4.80;;
24383;SDS011;12504;52.870;8.798;2023-03-08T15:45:34;12.70;;;4.47;;
24383;SDS011;12504;52.870;8.798;2023-03-08T15:48:00;7.25;;;4.00;;
24383;SDS011;12504;52.870;8.798;2023-03-08T15:50:28;6.55;;;4.10;;
24383;SDS011;12504;52.870;8.798;2023-03-08T15:52:55;11.77;;;4.35;;
24383;SDS011;12504;52.870;8.798;2023-03-08T15:55:21;9.00;;;5.15;;
24383;SDS011;12504;52.870;8.798;2023-03-08T15:57:49;11.75;;;4.93;;
24383;SDS011;12504;52.870;8.798;2023-03-08T16:00:15;10.75;;;5.60;;
24383;SDS011;12504;52.870;8.798;2023-03-08T16:02:42;8.77;;;4.60;;
24383;SDS011;12504;52.870;8.798;2023-03-08T16:05:09;9.25;;;5.03;;
24383;SDS011;12504;52.870;8.798;2023-03-08T16:07:36;12.13;;;4.53;;